Rainy River, Canada
Current Conditions -  °F | °C
As of 2:53 PM on Friday 19 Dec 2014 (Local Time) from KBDE Reporting Station
Overcast Overcast  
Wind Chill: 17°   Ceiling: 1100
Heat Index: 24°   Visibility: 7mi
Dew Point: 20°   Wind: 6mph
Humidity: 84%   Direction: 160°SSE
Pressure: 30.07"   Gusts: NA
Location:  48.72°N, 94.56°W
Report Text: KBDE 192053Z AUTO 16005KT 7SM OVC011 M04/M07 A3007 RMK AO2 SLP203 T10441067 56012 TSNO
Loading
Personal Weather Stations






























Interactive Weather Map New forecast layout! Learn more

10-Day Weather Forecast

Advertisements
Track Severe Weather on mobile